Latest Weather Observations for Toowoomba

IDQ60801

Issued at 7:32 am EST Monday 8 February 2016 (issued every 30 minutes, with the page automatically refreshed every 10 minutes)

About weather observations | Map of weather stations | Latest weather observations for QLD | Other Formats
Station Details ID: 041529 Name: TOOWOOMBA AIRPORT Lat: -27.54 Lon: 151.91 Height: 640.9 m
Data from the previous 72 hours. | See also: Recent months at Toowoomba
Date/Time
EST
Temp
°C
App
Temp
°C
Dew
Point
Rel
Hum
%
Delta-T
°C
Wind Press
QNH
hPa
Press
MSL
hPa
Rain
since 9 am
mm
Dir
 
Spd
km/h
Gust
km/h
Spd
kts
Gust
kts
08/07:30am 18.6 14.3 14.3 76 2.5 E 30 35 16 19 1018.9 1015.3 0.0
08/07:00am 17.8 13.5 14.3 80 2.1 E 30 37 16 20 1018.7 1015.1 0.0
08/06:30am 17.2 13.8 14.8 86 1.4 E 26 35 14 19 1018.2 1014.7 0.0
08/06:00am 16.5 13.2 14.9 90 0.9 E 26 33 14 18 1017.9 1014.4 0.0
08/05:30am 16.2 13.2 14.9 92 0.8 E 24 30 13 16 1017.6 1014.0 0.0
08/05:00am 16.2 13.2 14.9 92 0.8 E 24 30 13 16 1017.3 1013.7 0.0
08/04:30am 16.2 13.9 14.7 91 0.9 E 20 28 11 15 1017.5 1013.9 0.0
08/04:00am 16.3 13.7 14.8 91 0.9 E 22 28 12 15 1017.5 1013.9 0.0
08/03:30am 16.4 13.4 14.9 91 0.9 E 24 32 13 17 1017.3 1013.7 0.0
08/03:00am 16.5 13.5 14.7 89 1.1 E 24 28 13 15 1017.3 1013.7 0.0
08/02:30am 16.6 14.0 14.8 89 1.1 E 22 28 12 15 1017.4 1013.8 0.0
08/02:00am 16.6 13.6 14.8 89 1.1 E 24 28 13 15 1017.6 1014.0 0.0
08/01:30am 16.7 14.1 14.9 89 1.1 E 22 28 12 15 1018.0 1014.5 0.0
08/01:00am 16.8 14.2 14.8 88 1.2 E 22 26 12 14 1018.3 1014.8 0.0
08/12:30am 17.2 14.5 14.7 85 1.5 E 22 28 12 15 1018.6 1015.0 0.0
08/12:00am 17.8 13.9 14.5 81 2.0 ESE 28 39 15 21 1018.9 1015.3 0.0
 
Date/Time
EST
Temp
°C
App
Temp
°C
Dew
Point
Rel
Hum
%
Delta-T
°C
Wind Press
QNH
hPa
Press
MSL
hPa
Rain
since 9 am
mm
Dir
 
Spd
km/h
Gust
km/h
Spd
kts
Gust
kts
07/11:30pm 18.0 14.3 15.1 83 1.7 ESE 28 35 15 19 1018.9 1015.3 0.0
07/11:00pm 18.2 16.2 15.6 85 1.6 ESE 20 26 11 14 1019.2 1015.6 0.0
07/10:30pm 18.7 16.6 16.3 86 1.5 E 22 28 12 15 1019.3 1015.7 0.0
07/10:00pm 18.7 17.3 16.5 87 1.4 E 19 28 10 15 1019.1 1015.5 0.0
07/09:30pm 19.0 16.2 16.4 85 1.6 ESE 26 33 14 18 1018.8 1015.2 0.0
07/09:00pm 19.4 16.2 16.2 82 2.0 E 28 37 15 20 1018.6 1015.0 0.0
07/08:30pm 19.5 16.6 16.2 81 2.0 E 26 35 14 19 1018.3 1014.8 0.0
07/08:00pm 19.8 16.6 16.3 80 2.2 E 28 37 15 20 1017.9 1014.4 0.0
07/07:30pm 20.3 18.3 16.5 79 2.4 E 22 30 12 16 1018.0 1014.5 0.0
07/07:00pm 20.4 18.8 16.4 78 2.5 E 20 28 11 15 1017.6 1014.0 0.0
07/06:30pm 20.8 18.0 16.4 76 2.7 E 26 33 14 18 1016.9 1013.3 0.0
07/06:00pm 21.3 19.7 16.5 74 3.0 E 20 30 11 16 1016.7 1013.2 0.0
07/05:30pm 21.7 18.9 16.4 72 3.3 E 26 37 14 20 1016.3 1012.7 0.0
07/05:00pm 22.3 19.1 16.3 69 3.7 E 28 35 15 19 1016.1 1012.5 0.0
07/04:30pm 22.7 19.6 16.5 68 3.9 E 28 37 15 20 1016.0 1012.4 0.0
07/04:00pm 23.4 20.6 16.4 64 4.4 E 26 33 14 18 1015.9 1012.3 0.0
07/03:30pm 24.5 22.3 17.0 63 4.8 E 24 32 13 17 1015.9 1012.3 0.0
07/03:00pm 24.1 22.1 17.4 66 4.3 E 24 32 13 17 1016.0 1012.4 0.0
07/02:30pm 24.2 21.1 15.7 59 5.3 E 26 35 14 19 1016.0 1012.4 0.0
07/02:00pm 24.3 21.4 17.1 64 4.6 E 28 37 15 20 1016.4 1012.8 0.0
07/01:30pm 24.1 21.5 17.8 68 4.0 E 28 33 15 18 1016.7 1013.2 0.0
07/01:00pm 23.4 20.6 16.4 64 4.4 E 26 37 14 20 1016.7 1013.2 0.0
07/12:30pm 22.6 20.2 16.4 68 3.9 ESE 24 33 13 18 1017.1 1013.5 0.0
07/12:00pm 23.3 21.6 17.3 69 3.8 E 22 32 12 17 1016.9 1013.3 0.0
07/11:30am 22.3 19.2 15.6 66 4.1 E 26 35 14 19 1016.6 1013.1 0.0
07/11:00am 22.4 20.6 16.9 71 3.5 E 22 32 12 17 1017.1 1013.5 0.0
07/10:30am 20.8 19.3 16.4 76 2.7 ESE 19 24 10 13 1017.8 1014.2 0.0
07/10:00am 20.3 18.6 16.3 78 2.5 SE 20 28 11 15 1017.9 1014.4 0.0
07/09:30am 19.5 17.3 16.9 85 1.6 ESE 24 32 13 17 1017.3 1013.7 0.0
07/09:00am 19.6 17.9 16.3 81 2.0 ESE 20 28 11 15 1017.5 1013.9 4.0
07/08:30am 19.2 17.7 16.4 84 1.7 SE 19 24 10 13 1017.4 1013.8 4.0
07/08:00am 18.4 17.5 16.9 91 0.9 SE 17 22 9 12 1017.4 1013.8 4.0
07/07:49am 18.3 17.6 17.3 94 0.6 SE 17 22 9 12 1017.4 1013.8 4.0
07/07:30am 17.9 16.8 17.4 97 0.3 ESE 19 24 10 13 1017.0 1013.4 4.0
07/07:00am 17.4 15.7 17.1 98 0.2 ESE 22 30 12 16 1016.7 1013.2 4.0
07/06:30am 17.4 15.3 17.2 99 0.1 ESE 24 32 13 17 1016.3 1012.7 4.0
07/06:00am 17.5 14.7 17.3 99 0.1 ESE 28 33 15 18 1015.7 1012.1 4.0
07/05:49am 17.5 15.8 17.3 99 0.1 ESE 22 30 12 16 1015.7 1012.1 3.8
07/05:37am 17.5 15.5 17.3 99 0.1 E 24 32 13 17 1015.7 1012.1 3.8
07/05:30am 17.5 15.5 17.3 99 0.1 ESE 24 32 13 17 1015.7 1012.1 3.8
07/05:00am 17.7 16.1 17.5 99 0.1 ESE 22 30 12 16 1015.5 1011.9 3.8
07/04:49am 17.7 15.7 17.5 99 0.1 ESE 24 32 13 17 1015.5 1011.9 3.8
07/04:30am 17.8 16.3 17.6 99 0.1 ESE 22 30 12 16 1015.3 1011.7 3.8
07/04:11am 17.9 16.4 17.7 99 0.1 ESE 22 30 12 16 1015.3 1011.7 3.8
07/04:00am 17.9 16.8 17.7 99 0.1 ESE 20 26 11 14 1015.3 1011.7 3.8
07/03:30am 17.9 16.8 17.7 99 0.1 E 20 24 11 13 1015.0 1011.4 3.8
07/03:00am 18.0 17.9 17.8 99 0.1 ESE 15 20 8 11 1015.6 1012.0 3.8
07/02:56am 18.0 17.9 17.8 99 0.1 ESE 15 19 8 10 1015.6 1012.0 3.8
07/02:30am 18.0 17.5 17.8 99 0.1 ESE 17 20 9 11 1015.4 1011.8 3.8
07/02:21am 18.1 17.6 17.9 99 0.1 ESE 17 20 9 11 1015.4 1011.8 3.8
07/02:10am 18.1 18.0 17.9 99 0.1 ESE 15 20 8 11 1015.4 1011.8 3.6
07/02:00am 18.2 18.2 18.0 99 0.1 ESE 15 17 8 9 1015.5 1011.9 3.6
07/01:57am 18.2 18.2 18.0 99 0.1 ESE 15 17 8 9 1015.6 1012.0 3.6
07/01:30am 18.2 17.8 18.0 99 0.1 ESE 17 24 9 13 1015.6 1012.0 3.6
07/01:00am 18.1 17.3 17.9 99 0.1 ESE 19 22 10 12 1015.5 1011.9 3.6
07/12:30am 18.1 17.1 17.9 99 0.1 ESE 20 28 11 15 1015.7 1012.1 3.6
07/12:09am 18.1 16.7 17.9 99 0.1 ESE 22 28 12 15 1015.7 1012.1 3.6
07/12:00am 18.2 16.5 18.0 99 0.1 ESE 24 35 13 19 1015.6 1012.0 3.6
 
Date/Time
EST
Temp
°C
App
Temp
°C
Dew
Point
Rel
Hum
%
Delta-T
°C
Wind Press
QNH
hPa
Press
MSL
hPa
Rain
since 9 am
mm
Dir
 
Spd
km/h
Gust
km/h
Spd
kts
Gust
kts
06/11:30pm 18.3 16.6 18.1 99 0.1 ESE 24 35 13 19 1015.8 1012.2 3.6
06/11:22pm 18.3 15.8 18.1 99 0.1 ESE 28 43 15 23 1015.8 1012.2 3.6
06/11:00pm 18.3 14.9 18.1 99 0.1 ESE 33 46 18 25 1015.6 1012.0 3.6
06/10:30pm 18.4 15.0 18.2 99 0.1 E 33 46 18 25 1015.6 1012.0 3.6
06/10:00pm 18.6 15.5 18.3 98 0.2 E 32 43 17 23 1016.4 1012.8 3.4
06/09:35pm 18.6 15.3 18.4 99 0.1 E 33 46 18 25 1016.2 1012.6 3.2
06/09:30pm 18.6 14.9 18.4 99 0.1 E 35 44 19 24 1016.1 1012.5 2.8
06/09:00pm 18.8 15.6 18.6 99 0.1 E 33 44 18 24 1016.2 1012.6 2.4
06/08:30pm 18.9 16.7 18.6 98 0.2 E 28 41 15 22 1015.5 1011.9 2.0
06/08:00pm 19.2 16.3 18.9 98 0.2 E 32 41 17 22 1015.4 1011.8 1.6
06/07:30pm 19.4 17.4 19.1 98 0.2 E 28 37 15 20 1014.7 1011.1 1.4
06/07:00pm 19.5 19.1 19.3 99 0.1 ESE 20 28 11 15 1015.0 1011.4 1.4
06/06:30pm 19.5 19.0 19.2 98 0.2 ESE 20 28 11 15 1014.6 1011.0 1.4
06/06:12pm 19.5 18.7 19.2 98 0.2 ESE 22 30 12 16 1014.3 1010.7 1.4
06/06:00pm 19.7 19.3 19.4 98 0.2 ESE 20 28 11 15 1014.2 1010.6 1.4
06/05:39pm 19.7 18.5 19.2 97 0.3 ESE 24 32 13 17 1013.7 1010.0 1.4
06/05:38pm 19.7 18.5 19.2 97 0.3 ESE 24 32 13 17 1013.7 1010.0 1.4
06/05:30pm 19.8 18.1 19.0 95 0.5 ESE 26 41 14 22 1013.6 1009.9 1.4
06/05:00pm 19.5 18.3 19.3 99 0.1 ESE 24 32 13 17 1013.6 1009.9 1.2
06/04:30pm 19.9 19.2 19.4 97 0.3 E 22 30 12 16 1013.4 1009.8 0.8
06/04:15pm 20.2 19.4 19.2 94 0.6 E 22 28 12 15 1013.4 1009.8 0.6
06/04:11pm 20.4 19.5 19.1 92 0.8 E 22 30 12 16 1013.3 1009.7 0.2
06/04:00pm 20.9 20.4 19.0 89 1.2 E 20 30 11 16 1013.1 1009.5 0.0
06/03:30pm 20.7 19.3 18.8 89 1.2 ESE 24 30 13 16 1013.1 1009.5 0.0
06/03:26pm 20.7 19.4 19.0 90 1.1 ESE 24 30 13 16 1013.1 1009.5 0.0
06/03:00pm 20.5 18.9 19.3 93 0.8 E 26 35 14 19 1013.3 1009.7 0.0
06/02:53pm 20.8 19.7 19.5 92 0.8 ESE 24 30 13 16 1013.6 1009.9 0.0
06/02:31pm 20.8 19.4 18.9 89 1.2 E 24 33 13 18 1013.7 1010.0 0.0
06/02:30pm 20.9 19.6 19.0 89 1.2 E 24 33 13 18 1013.7 1010.0 0.0
06/02:26pm 21.3 20.5 19.2 88 1.4 E 22 33 12 18 1013.7 1010.0 0.0
06/02:00pm 20.8 20.0 19.3 91 1.0 E 22 30 12 16 1013.8 1010.2 0.0
06/01:46pm 20.9 19.0 19.4 91 1.0 E 28 35 15 19 1013.7 1010.0 0.0
06/01:30pm 22.3 20.3 18.3 78 2.6 ESE 26 39 14 21 1013.6 1009.9 0.0
06/01:21pm 22.2 19.6 18.6 80 2.3 E 30 48 16 26 1013.6 1009.9 0.0
06/01:00pm 23.7 20.1 17.2 67 4.1 ESE 32 43 17 23 1013.6 1009.9 0.0
06/12:30pm 24.5 20.9 17.7 66 4.4 ESE 33 43 18 23 1013.7 1010.0 0.0
06/12:00pm 24.0 21.0 17.7 68 4.0 ESE 30 41 16 22 1014.1 1010.5 0.0
06/11:30am 24.0 21.2 18.2 70 3.7 SE 30 41 16 22 1014.2 1010.6 0.0
06/11:00am 22.9 19.3 17.1 70 3.7 ESE 32 46 17 25 1014.4 1010.8 0.0
06/10:30am 23.1 18.5 17.1 69 3.8 ESE 37 48 20 26 1014.4 1010.8 0.0
06/10:00am 22.2 18.4 17.1 73 3.2 E 33 46 18 25 1014.9 1011.3 0.0
06/09:30am 23.1 19.5 17.3 70 3.7 ESE 32 50 17 27 1014.8 1011.2 0.0
06/09:29am 23.1 19.7 17.6 71 3.5 ESE 32 50 17 27 1014.7 1011.1 0.0
06/09:19am 22.2 18.2 17.6 75 2.9 ESE 35 52 19 28 1014.7 1011.1 0.0
06/09:10am 21.6 17.7 17.0 75 2.9 ESE 33 52 18 28 1014.6 1011.0 0.0
06/09:00am 21.3 18.5 17.3 78 2.5 E 28 43 15 23 1014.5 1010.9 1.2
06/08:30am 20.6 17.3 17.0 80 2.3 E 30 43 16 23 1014.6 1011.0 1.2
06/08:00am 19.8 17.3 17.0 84 1.7 ESE 26 33 14 18 1014.6 1011.0 1.2
06/07:41am 19.5 16.5 16.9 85 1.6 E 28 39 15 21 1014.6 1011.0 1.2
06/07:30am 19.8 17.0 17.2 85 1.6 ESE 28 35 15 19 1014.3 1010.7 1.2
06/07:00am 18.9 15.5 16.7 87 1.4 ESE 30 41 16 22 1013.9 1010.3 1.2
06/06:30am 18.5 15.1 16.7 89 1.1 E 30 37 16 20 1013.4 1009.8 1.2
06/06:00am 18.3 15.2 16.5 89 1.1 ESE 28 37 15 20 1013.1 1009.5 1.2
06/05:30am 18.1 14.9 16.3 89 1.1 ESE 28 39 15 21 1012.7 1009.1 1.2
06/05:00am 18.0 15.1 16.2 89 1.1 ESE 26 37 14 20 1012.3 1008.6 1.2
06/04:30am 18.2 15.0 16.2 88 1.2 ESE 28 37 15 20 1012.2 1008.5 1.2
06/04:00am 18.0 15.4 16.0 88 1.2 ESE 24 30 13 16 1012.1 1008.4 1.2
06/03:30am 18.0 15.4 15.8 87 1.3 ESE 24 33 13 18 1011.8 1008.2 1.2
06/03:00am 18.1 15.4 15.7 86 1.5 ESE 24 30 13 16 1011.8 1008.2 1.2
06/02:30am 18.1 15.0 15.5 85 1.6 ESE 26 35 14 19 1011.8 1008.2 1.2
06/02:00am 18.4 14.9 15.5 83 1.8 ESE 28 35 15 19 1012.1 1008.4 1.2
06/01:30am 18.7 15.2 15.4 81 2.0 ESE 28 35 15 19 1012.2 1008.5 1.2
06/01:00am 18.6 15.5 15.5 82 1.9 ESE 26 35 14 19 1012.6 1009.0 1.2
06/12:30am 18.6 15.9 15.7 83 1.8 ESE 24 32 13 17 1013.1 1009.5 1.2
06/12:00am 18.5 15.1 15.9 85 1.6 ESE 28 35 15 19 1013.1 1009.5 1.2
 
Date/Time
EST
Temp
°C
App
Temp
°C
Dew
Point
Rel
Hum
%
Delta-T
°C
Wind Press
QNH
hPa
Press
MSL
hPa
Rain
since 9 am
mm
Dir
 
Spd
km/h
Gust
km/h
Spd
kts
Gust
kts
05/11:30pm 18.5 15.2 16.1 86 1.5 ESE 28 37 15 20 1013.4 1009.8 1.2
05/11:00pm 18.9 14.8 16.0 83 1.8 ESE 32 41 17 22 1013.7 1010.0 1.2
05/10:30pm 19.1 15.4 16.0 82 1.9 ESE 30 35 16 19 1013.9 1010.3 1.2
05/10:00pm 19.3 16.3 15.8 80 2.1 ESE 26 35 14 19 1014.4 1010.8 1.0
05/09:30pm 19.5 16.6 16.0 80 2.1 E 26 35 14 19 1014.5 1010.9 1.0
05/09:00pm 19.8 17.0 16.3 80 2.2 ESE 26 35 14 19 1014.4 1010.8 1.0
05/08:30pm 20.1 16.9 16.3 79 2.3 E 28 37 15 20 1014.2 1010.6 1.0
05/08:00pm 20.6 17.7 17.0 80 2.3 ESE 28 39 15 21 1013.8 1010.2 1.0
05/07:30pm 20.8 18.6 17.0 79 2.4 ESE 24 37 13 20 1013.3 1009.7 1.0
05/07:00pm 21.2 18.4 17.2 78 2.5 E 28 39 15 21 1012.9 1009.3 1.0
05/06:30pm 21.6 19.6 17.4 77 2.7 E 24 33 13 18 1012.6 1009.0 1.0
05/06:00pm 21.9 19.6 17.5 76 2.8 ESE 26 37 14 20 1012.3 1008.6 1.0
05/05:30pm 22.4 20.6 17.8 75 2.9 E 24 32 13 17 1012.0 1008.3 1.0
05/05:00pm 22.6 21.2 17.9 75 3.0 E 22 35 12 19 1011.8 1008.2 1.0
05/04:30pm 23.1 20.7 18.2 74 3.2 ESE 28 35 15 19 1011.7 1008.1 1.0
05/04:00pm 22.7 20.5 17.8 74 3.1 ESE 26 35 14 19 1011.6 1008.0 1.0
05/03:30pm 22.6 20.3 18.4 77 2.7 E 28 37 15 20 1011.6 1008.0 1.0
05/03:00pm 22.7 21.8 19.1 80 2.3 ESE 22 28 12 15 1011.8 1008.2 1.0
05/02:30pm 22.2 21.1 18.6 80 2.3 E 22 30 12 16 1012.2 1008.5 1.0
05/02:00pm 22.0 21.4 18.8 82 2.1 ESE 20 28 11 15 1012.6 1009.0 1.0
05/01:30pm 21.5 21.0 19.2 87 1.5 ESE 20 28 11 15 1012.8 1009.2 1.0
05/01:00pm 20.7 19.4 19.0 90 1.1 E 24 32 13 17 1012.8 1009.2 1.0
05/12:30pm 21.2 20.1 19.5 90 1.1 ESE 24 33 13 18 1013.1 1009.5 1.0
05/12:00pm 20.2 19.7 19.2 94 0.6 E 20 26 11 14 1013.4 1009.8 1.0
05/11:30am 19.9 18.5 18.7 93 0.8 E 24 30 13 16 1013.4 1009.8 0.2
05/11:00am 19.7 17.7 18.2 91 1.0 E 26 33 14 18 1013.7 1010.0 0.2
05/10:30am 19.9 17.9 18.4 91 1.0 E 26 37 14 20 1013.2 1009.6 0.0
05/10:00am 19.9 17.1 18.2 90 1.1 E 30 37 16 20 1013.1 1009.5 0.0
05/09:30am 20.0 16.9 18.3 90 1.1 E 32 41 17 22 1012.8 1009.2 0.0
05/09:00am 19.1 16.5 17.8 92 0.8 ESE 28 39 15 21 1012.7 1009.1 2.4
05/08:30am 18.8 16.6 17.8 94 0.6 E 26 32 14 17 1012.6 1009.0 2.2
05/08:00am 18.8 17.0 17.8 94 0.6 E 24 32 13 17 1012.5 1008.9 2.2

Other Formats:

Comma delimited format used in spreadsheet applications
http://www.bom.gov.au/fwo/IDQ60801/IDQ60801.95551.axf

JavaScript Object Notation format (JSON) in row-major order
http://www.bom.gov.au/fwo/IDQ60801/IDQ60801.95551.json